sensor_id;sensor_type;location;lat;lon;timestamp;P1;durP1;ratioP1;P2;durP2;ratioP2
19804;SDS011;10062;51.052;13.756;2023-07-02T00:01:14;4.50;;;1.43;;
19804;SDS011;10062;51.052;13.756;2023-07-02T00:03:46;3.10;;;1.60;;
19804;SDS011;10062;51.052;13.756;2023-07-02T00:06:18;2.47;;;1.50;;
19804;SDS011;10062;51.052;13.756;2023-07-02T00:08:49;4.83;;;1.97;;
19804;SDS011;10062;51.052;13.756;2023-07-02T00:11:21;4.43;;;2.10;;
19804;SDS011;10062;51.052;13.756;2023-07-02T00:13:52;3.20;;;1.70;;
19804;SDS011;10062;51.052;13.756;2023-07-02T00:16:25;3.50;;;2.00;;
19804;SDS011;10062;51.052;13.756;2023-07-02T00:18:57;3.30;;;2.00;;
19804;SDS011;10062;51.052;13.756;2023-07-02T00:21:29;2.93;;;1.70;;
19804;SDS011;10062;51.052;13.756;2023-07-02T00:24:03;4.20;;;1.70;;
19804;SDS011;10062;51.052;13.756;2023-07-02T00:26:35;3.83;;;2.00;;
19804;SDS011;10062;51.052;13.756;2023-07-02T00:29:08;3.90;;;1.83;;
19804;SDS011;10062;51.052;13.756;2023-07-02T00:31:41;3.63;;;1.70;;
19804;SDS011;10062;51.052;13.756;2023-07-02T00:34:13;2.67;;;1.50;;
19804;SDS011;10062;51.052;13.756;2023-07-02T00:36:45;3.53;;;1.40;;
19804;SDS011;10062;51.052;13.756;2023-07-02T00:39:17;3.63;;;1.83;;
19804;SDS011;10062;51.052;13.756;2023-07-02T00:41:48;2.97;;;1.40;;
19804;SDS011;10062;51.052;13.756;2023-07-02T00:44:20;3.57;;;1.77;;
19804;SDS011;10062;51.052;13.756;2023-07-02T00:46:53;3.80;;;1.53;;
19804;SDS011;10062;51.052;13.756;2023-07-02T00:49:24;2.87;;;1.50;;
19804;SDS011;10062;51.052;13.756;2023-07-02T00:51:57;3.13;;;1.50;;
19804;SDS011;10062;51.052;13.756;2023-07-02T00:54:29;3.60;;;1.40;;
19804;SDS011;10062;51.052;13.756;2023-07-02T00:57:02;3.17;;;1.77;;
19804;SDS011;10062;51.052;13.756;2023-07-02T00:59:35;3.23;;;1.53;;
19804;SDS011;10062;51.052;13.756;2023-07-02T01:02:09;5.20;;;2.27;;
19804;SDS011;10062;51.052;13.756;2023-07-02T01:04:43;3.50;;;1.50;;
19804;SDS011;10062;51.052;13.756;2023-07-02T01:07:19;4.03;;;1.30;;
19804;SDS011;10062;51.052;13.756;2023-07-02T01:09:51;2.93;;;1.77;;
19804;SDS011;10062;51.052;13.756;2023-07-02T01:12:23;2.73;;;1.57;;
19804;SDS011;10062;51.052;13.756;2023-07-02T01:14:56;2.50;;;1.47;;
19804;SDS011;10062;51.052;13.756;2023-07-02T01:17:33;3.40;;;1.50;;
19804;SDS011;10062;51.052;13.756;2023-07-02T01:20:12;1.73;;;1.10;;
19804;SDS011;10062;51.052;13.756;2023-07-02T01:22:44;5.40;;;1.70;;
19804;SDS011;10062;51.052;13.756;2023-07-02T01:25:15;3.43;;;1.60;;
19804;SDS011;10062;51.052;13.756;2023-07-02T01:27:48;6.60;;;1.57;;
19804;SDS011;10062;51.052;13.756;2023-07-02T01:30:19;4.20;;;1.47;;
19804;SDS011;10062;51.052;13.756;2023-07-02T01:32:51;3.00;;;1.37;;
19804;SDS011;10062;51.052;13.756;2023-07-02T01:35:24;1.73;;;1.20;;
19804;SDS011;10062;51.052;13.756;2023-07-02T01:37:56;2.80;;;1.60;;
19804;SDS011;10062;51.052;13.756;2023-07-02T01:40:28;2.47;;;1.40;;
19804;SDS011;10062;51.052;13.756;2023-07-02T01:43:00;2.40;;;1.40;;
19804;SDS011;10062;51.052;13.756;2023-07-02T01:45:31;3.33;;;1.50;;
19804;SDS011;10062;51.052;13.756;2023-07-02T01:48:03;1.93;;;1.10;;
19804;SDS011;10062;51.052;13.756;2023-07-02T01:50:36;3.50;;;1.87;;
19804;SDS011;10062;51.052;13.756;2023-07-02T01:53:08;2.63;;;1.50;;
19804;SDS011;10062;51.052;13.756;2023-07-02T01:55:40;3.27;;;1.50;;
19804;SDS011;10062;51.052;13.756;2023-07-02T01:58:11;7.50;;;1.40;;
19804;SDS011;10062;51.052;13.756;2023-07-02T02:00:43;2.00;;;1.13;;
19804;SDS011;10062;51.052;13.756;2023-07-02T02:03:15;3.97;;;1.50;;
19804;SDS011;10062;51.052;13.756;2023-07-02T02:05:48;4.03;;;1.60;;
19804;SDS011;10062;51.052;13.756;2023-07-02T02:08:20;2.73;;;1.50;;
19804;SDS011;10062;51.052;13.756;2023-07-02T02:10:52;2.43;;;1.60;;
19804;SDS011;10062;51.052;13.756;2023-07-02T02:13:23;2.03;;;1.27;;
19804;SDS011;10062;51.052;13.756;2023-07-02T02:15:55;2.23;;;1.13;;
19804;SDS011;10062;51.052;13.756;2023-07-02T02:18:27;4.43;;;1.47;;
19804;SDS011;10062;51.052;13.756;2023-07-02T02:21:00;4.03;;;1.17;;
19804;SDS011;10062;51.052;13.756;2023-07-02T02:23:31;3.60;;;1.67;;
19804;SDS011;10062;51.052;13.756;2023-07-02T02:26:03;3.57;;;1.60;;
19804;SDS011;10062;51.052;13.756;2023-07-02T02:28:35;2.10;;;1.27;;
19804;SDS011;10062;51.052;13.756;2023-07-02T02:31:06;2.73;;;1.43;;
19804;SDS011;10062;51.052;13.756;2023-07-02T02:33:39;2.43;;;1.30;;
19804;SDS011;10062;51.052;13.756;2023-07-02T02:36:12;2.20;;;1.40;;
19804;SDS011;10062;51.052;13.756;2023-07-02T02:38:44;2.67;;;1.40;;
19804;SDS011;10062;51.052;13.756;2023-07-02T02:41:16;2.03;;;1.40;;
19804;SDS011;10062;51.052;13.756;2023-07-02T02:43:52;1.97;;;1.30;;
19804;SDS011;10062;51.052;13.756;2023-07-02T02:46:26;3.90;;;1.77;;
19804;SDS011;10062;51.052;13.756;2023-07-02T02:48:57;4.50;;;1.50;;
19804;SDS011;10062;51.052;13.756;2023-07-02T02:51:31;5.33;;;2.00;;
19804;SDS011;10062;51.052;13.756;2023-07-02T02:54:02;2.60;;;1.50;;
19804;SDS011;10062;51.052;13.756;2023-07-02T02:56:34;2.63;;;1.60;;
19804;SDS011;10062;51.052;13.756;2023-07-02T02:59:06;2.53;;;1.47;;
19804;SDS011;10062;51.052;13.756;2023-07-02T03:01:38;3.57;;;1.50;;
19804;SDS011;10062;51.052;13.756;2023-07-02T03:04:10;2.23;;;1.40;;
19804;SDS011;10062;51.052;13.756;2023-07-02T03:06:43;2.17;;;1.60;;
19804;SDS011;10062;51.052;13.756;2023-07-02T03:09:16;3.87;;;1.53;;
19804;SDS011;10062;51.052;13.756;2023-07-02T03:11:48;3.17;;;1.57;;
19804;SDS011;10062;51.052;13.756;2023-07-02T03:14:19;2.80;;;1.57;;
19804;SDS011;10062;51.052;13.756;2023-07-02T03:16:51;4.90;;;2.40;;
19804;SDS011;10062;51.052;13.756;2023-07-02T03:19:23;3.00;;;1.67;;
19804;SDS011;10062;51.052;13.756;2023-07-02T03:21:56;2.77;;;1.40;;
19804;SDS011;10062;51.052;13.756;2023-07-02T03:24:27;3.13;;;1.80;;
19804;SDS011;10062;51.052;13.756;2023-07-02T03:26:59;2.53;;;1.57;;
19804;SDS011;10062;51.052;13.756;2023-07-02T03:29:31;2.43;;;1.40;;
19804;SDS011;10062;51.052;13.756;2023-07-02T03:32:04;4.93;;;1.70;;
19804;SDS011;10062;51.052;13.756;2023-07-02T03:34:36;2.53;;;1.40;;
19804;SDS011;10062;51.052;13.756;2023-07-02T03:37:09;2.67;;;1.30;;
19804;SDS011;10062;51.052;13.756;2023-07-02T03:39:41;4.60;;;1.50;;
19804;SDS011;10062;51.052;13.756;2023-07-02T03:42:12;4.20;;;1.90;;
19804;SDS011;10062;51.052;13.756;2023-07-02T03:44:44;4.07;;;1.43;;
19804;SDS011;10062;51.052;13.756;2023-07-02T03:47:16;10.93;;;1.97;;
19804;SDS011;10062;51.052;13.756;2023-07-02T03:49:49;2.47;;;1.50;;
19804;SDS011;10062;51.052;13.756;2023-07-02T03:52:22;2.60;;;1.67;;
19804;SDS011;10062;51.052;13.756;2023-07-02T03:54:54;3.07;;;1.60;;
19804;SDS011;10062;51.052;13.756;2023-07-02T03:57:25;2.67;;;1.50;;
19804;SDS011;10062;51.052;13.756;2023-07-02T03:59:57;3.90;;;1.80;;
19804;SDS011;10062;51.052;13.756;2023-07-02T04:02:29;4.60;;;1.60;;
19804;SDS011;10062;51.052;13.756;2023-07-02T04:05:00;3.73;;;1.80;;
19804;SDS011;10062;51.052;13.756;2023-07-02T04:07:34;3.27;;;2.00;;
19804;SDS011;10062;51.052;13.756;2023-07-02T04:10:06;6.53;;;1.70;;
19804;SDS011;10062;51.052;13.756;2023-07-02T04:12:38;2.60;;;1.43;;
19804;SDS011;10062;51.052;13.756;2023-07-02T04:15:10;5.20;;;2.00;;
19804;SDS011;10062;51.052;13.756;2023-07-02T04:17:42;3.20;;;1.87;;
19804;SDS011;10062;51.052;13.756;2023-07-02T04:20:13;4.97;;;2.00;;
19804;SDS011;10062;51.052;13.756;2023-07-02T04:22:46;6.00;;;1.87;;
19804;SDS011;10062;51.052;13.756;2023-07-02T04:25:19;4.33;;;1.87;;
19804;SDS011;10062;51.052;13.756;2023-07-02T04:27:50;2.43;;;1.70;;
19804;SDS011;10062;51.052;13.756;2023-07-02T04:30:26;2.77;;;1.97;;
19804;SDS011;10062;51.052;13.756;2023-07-02T04:32:58;2.70;;;1.60;;
19804;SDS011;10062;51.052;13.756;2023-07-02T04:35:29;4.30;;;2.03;;
19804;SDS011;10062;51.052;13.756;2023-07-02T04:38:03;4.73;;;2.20;;
19804;SDS011;10062;51.052;13.756;2023-07-02T04:40:36;2.93;;;1.83;;
19804;SDS011;10062;51.052;13.756;2023-07-02T04:43:08;3.03;;;1.93;;
19804;SDS011;10062;51.052;13.756;2023-07-02T04:45:40;3.13;;;1.70;;
19804;SDS011;10062;51.052;13.756;2023-07-02T04:48:14;4.43;;;2.17;;
19804;SDS011;10062;51.052;13.756;2023-07-02T04:50:46;7.13;;;2.33;;
19804;SDS011;10062;51.052;13.756;2023-07-02T04:53:19;4.07;;;1.90;;
19804;SDS011;10062;51.052;13.756;2023-07-02T04:55:50;5.70;;;2.07;;
19804;SDS011;10062;51.052;13.756;2023-07-02T04:58:22;3.07;;;1.90;;
19804;SDS011;10062;51.052;13.756;2023-07-02T05:00:54;2.70;;;1.63;;
19804;SDS011;10062;51.052;13.756;2023-07-02T05:03:26;4.37;;;2.27;;
19804;SDS011;10062;51.052;13.756;2023-07-02T05:05:57;5.57;;;2.10;;
19804;SDS011;10062;51.052;13.756;2023-07-02T05:08:30;6.53;;;4.33;;
19804;SDS011;10062;51.052;13.756;2023-07-02T05:11:02;11.33;;;6.27;;
19804;SDS011;10062;51.052;13.756;2023-07-02T05:13:34;10.37;;;7.13;;
19804;SDS011;10062;51.052;13.756;2023-07-02T05:16:05;11.03;;;7.13;;
19804;SDS011;10062;51.052;13.756;2023-07-02T05:18:37;5.40;;;3.47;;
19804;SDS011;10062;51.052;13.756;2023-07-02T05:21:09;5.30;;;3.80;;
19804;SDS011;10062;51.052;13.756;2023-07-02T05:23:42;4.97;;;2.60;;
19804;SDS011;10062;51.052;13.756;2023-07-02T05:26:14;5.20;;;2.80;;
19804;SDS011;10062;51.052;13.756;2023-07-02T05:28:45;5.40;;;2.77;;
19804;SDS011;10062;51.052;13.756;2023-07-02T05:31:18;4.83;;;2.57;;
19804;SDS011;10062;51.052;13.756;2023-07-02T05:33:50;4.40;;;2.43;;
19804;SDS011;10062;51.052;13.756;2023-07-02T05:36:22;3.17;;;2.10;;
19804;SDS011;10062;51.052;13.756;2023-07-02T05:38:54;3.47;;;2.17;;
19804;SDS011;10062;51.052;13.756;2023-07-02T05:41:26;4.83;;;2.20;;
19804;SDS011;10062;51.052;13.756;2023-07-02T05:44:00;4.83;;;2.37;;
19804;SDS011;10062;51.052;13.756;2023-07-02T05:46:32;3.23;;;2.10;;
19804;SDS011;10062;51.052;13.756;2023-07-02T05:49:04;5.27;;;2.83;;
19804;SDS011;10062;51.052;13.756;2023-07-02T05:51:36;6.87;;;4.10;;
19804;SDS011;10062;51.052;13.756;2023-07-02T05:54:09;4.97;;;2.43;;
19804;SDS011;10062;51.052;13.756;2023-07-02T05:56:40;6.17;;;3.17;;
19804;SDS011;10062;51.052;13.756;2023-07-02T05:59:12;3.57;;;2.17;;
19804;SDS011;10062;51.052;13.756;2023-07-02T06:01:47;4.23;;;2.40;;
19804;SDS011;10062;51.052;13.756;2023-07-02T06:04:19;3.50;;;2.53;;
19804;SDS011;10062;51.052;13.756;2023-07-02T06:06:51;5.63;;;2.20;;
19804;SDS011;10062;51.052;13.756;2023-07-02T06:09:24;3.47;;;2.30;;
19804;SDS011;10062;51.052;13.756;2023-07-02T06:11:56;2.90;;;2.20;;
19804;SDS011;10062;51.052;13.756;2023-07-02T06:14:27;3.87;;;2.17;;
19804;SDS011;10062;51.052;13.756;2023-07-02T06:16:59;4.43;;;2.23;;
19804;SDS011;10062;51.052;13.756;2023-07-02T06:19:31;2.97;;;1.97;;
19804;SDS011;10062;51.052;13.756;2023-07-02T06:22:03;3.27;;;2.20;;
19804;SDS011;10062;51.052;13.756;2023-07-02T06:24:36;6.27;;;2.63;;
19804;SDS011;10062;51.052;13.756;2023-07-02T06:27:08;4.33;;;3.00;;
19804;SDS011;10062;51.052;13.756;2023-07-02T06:29:39;5.40;;;2.57;;
19804;SDS011;10062;51.052;13.756;2023-07-02T06:32:11;3.67;;;2.50;;
19804;SDS011;10062;51.052;13.756;2023-07-02T06:34:43;4.97;;;3.17;;
19804;SDS011;10062;51.052;13.756;2023-07-02T06:37:15;3.00;;;2.30;;
19804;SDS011;10062;51.052;13.756;2023-07-02T06:39:48;5.03;;;2.43;;
19804;SDS011;10062;51.052;13.756;2023-07-02T06:42:19;5.00;;;2.77;;
19804;SDS011;10062;51.052;13.756;2023-07-02T06:44:51;5.53;;;3.07;;
19804;SDS011;10062;51.052;13.756;2023-07-02T06:47:23;4.57;;;2.67;;
19804;SDS011;10062;51.052;13.756;2023-07-02T06:49:54;5.93;;;3.60;;
19804;SDS011;10062;51.052;13.756;2023-07-02T06:52:26;8.17;;;3.03;;
19804;SDS011;10062;51.052;13.756;2023-07-02T06:54:59;4.17;;;2.70;;
19804;SDS011;10062;51.052;13.756;2023-07-02T06:57:31;5.50;;;2.57;;
19804;SDS011;10062;51.052;13.756;2023-07-02T07:00:03;4.50;;;2.70;;
19804;SDS011;10062;51.052;13.756;2023-07-02T07:02:36;7.13;;;2.67;;
19804;SDS011;10062;51.052;13.756;2023-07-02T07:05:08;3.77;;;2.47;;
19804;SDS011;10062;51.052;13.756;2023-07-02T07:07:40;4.80;;;2.33;;
19804;SDS011;10062;51.052;13.756;2023-07-02T07:10:13;4.43;;;2.80;;
19804;SDS011;10062;51.052;13.756;2023-07-02T07:12:45;4.90;;;2.57;;
19804;SDS011;10062;51.052;13.756;2023-07-02T07:15:17;6.23;;;2.27;;
19804;SDS011;10062;51.052;13.756;2023-07-02T07:17:48;6.00;;;2.70;;
19804;SDS011;10062;51.052;13.756;2023-07-02T07:20:20;5.47;;;3.20;;
19804;SDS011;10062;51.052;13.756;2023-07-02T07:22:52;3.90;;;2.70;;
19804;SDS011;10062;51.052;13.756;2023-07-02T07:25:25;5.67;;;2.83;;
19804;SDS011;10062;51.052;13.756;2023-07-02T07:27:57;8.90;;;5.50;;
19804;SDS011;10062;51.052;13.756;2023-07-02T07:30:29;6.10;;;3.07;;
19804;SDS011;10062;51.052;13.756;2023-07-02T07:33:00;4.63;;;3.70;;
19804;SDS011;10062;51.052;13.756;2023-07-02T07:35:32;5.03;;;3.67;;
19804;SDS011;10062;51.052;13.756;2023-07-02T07:38:04;9.43;;;3.07;;
19804;SDS011;10062;51.052;13.756;2023-07-02T07:40:36;6.03;;;2.67;;
19804;SDS011;10062;51.052;13.756;2023-07-02T07:43:08;5.13;;;2.90;;
19804;SDS011;10062;51.052;13.756;2023-07-02T07:45:40;4.33;;;3.13;;
19804;SDS011;10062;51.052;13.756;2023-07-02T07:48:11;3.80;;;2.93;;
19804;SDS011;10062;51.052;13.756;2023-07-02T07:50:43;3.93;;;2.73;;
19804;SDS011;10062;51.052;13.756;2023-07-02T07:53:15;4.83;;;2.90;;
19804;SDS011;10062;51.052;13.756;2023-07-02T07:55:48;5.53;;;2.47;;
19804;SDS011;10062;51.052;13.756;2023-07-02T07:58:19;5.30;;;3.30;;
19804;SDS011;10062;51.052;13.756;2023-07-02T08:00:51;4.77;;;2.63;;
19804;SDS011;10062;51.052;13.756;2023-07-02T08:03:23;3.63;;;2.67;;
19804;SDS011;10062;51.052;13.756;2023-07-02T08:05:54;4.00;;;2.50;;
19804;SDS011;10062;51.052;13.756;2023-07-02T08:08:26;4.20;;;2.20;;
19804;SDS011;10062;51.052;13.756;2023-07-02T08:10:59;3.40;;;2.35;;
19804;SDS011;10062;51.052;13.756;2023-07-02T08:13:31;5.43;;;2.37;;
19804;SDS011;10062;51.052;13.756;2023-07-02T08:16:02;5.00;;;2.40;;
19804;SDS011;10062;51.052;13.756;2023-07-02T08:18:34;3.57;;;2.30;;
19804;SDS011;10062;51.052;13.756;2023-07-02T08:21:06;3.75;;;2.80;;
19804;SDS011;10062;51.052;13.756;2023-07-02T08:23:38;6.85;;;2.22;;
19804;SDS011;10062;51.052;13.756;2023-07-02T08:26:11;3.75;;;2.38;;
19804;SDS011;10062;51.052;13.756;2023-07-02T08:28:44;3.08;;;2.15;;
19804;SDS011;10062;51.052;13.756;2023-07-02T08:31:16;3.38;;;2.13;;
19804;SDS011;10062;51.052;13.756;2023-07-02T08:33:47;4.03;;;2.10;;
19804;SDS011;10062;51.052;13.756;2023-07-02T08:36:19;7.55;;;2.40;;
19804;SDS011;10062;51.052;13.756;2023-07-02T08:38:51;4.55;;;2.10;;
19804;SDS011;10062;51.052;13.756;2023-07-02T08:41:24;7.15;;;2.40;;
19804;SDS011;10062;51.052;13.756;2023-07-02T08:43:55;3.03;;;2.20;;
19804;SDS011;10062;51.052;13.756;2023-07-02T08:46:29;4.53;;;2.40;;
19804;SDS011;10062;51.052;13.756;2023-07-02T08:49:01;4.65;;;1.83;;
19804;SDS011;10062;51.052;13.756;2023-07-02T08:51:32;4.13;;;2.30;;
19804;SDS011;10062;51.052;13.756;2023-07-02T08:54:04;5.10;;;2.00;;
19804;SDS011;10062;51.052;13.756;2023-07-02T08:56:37;3.95;;;2.15;;
19804;SDS011;10062;51.052;13.756;2023-07-02T08:59:09;4.20;;;2.45;;
19804;SDS011;10062;51.052;13.756;2023-07-02T09:01:44;5.00;;;2.10;;
19804;SDS011;10062;51.052;13.756;2023-07-02T09:04:17;4.15;;;1.67;;
19804;SDS011;10062;51.052;13.756;2023-07-02T09:06:51;3.88;;;2.25;;
19804;SDS011;10062;51.052;13.756;2023-07-02T09:09:43;4.82;;;2.13;;
19804;SDS011;10062;51.052;13.756;2023-07-02T09:12:24;3.90;;;1.77;;
19804;SDS011;10062;51.052;13.756;2023-07-02T09:14:57;4.03;;;1.80;;
19804;SDS011;10062;51.052;13.756;2023-07-02T09:17:30;3.22;;;1.60;;
19804;SDS011;10062;51.052;13.756;2023-07-02T09:20:03;3.55;;;2.00;;
19804;SDS011;10062;51.052;13.756;2023-07-02T09:22:38;5.15;;;2.03;;
19804;SDS011;10062;51.052;13.756;2023-07-02T09:25:11;3.88;;;1.80;;
19804;SDS011;10062;51.052;13.756;2023-07-02T09:27:45;4.18;;;1.80;;
19804;SDS011;10062;51.052;13.756;2023-07-02T09:30:17;2.75;;;1.88;;
19804;SDS011;10062;51.052;13.756;2023-07-02T09:32:49;4.18;;;1.85;;
19804;SDS011;10062;51.052;13.756;2023-07-02T09:35:21;4.05;;;1.52;;
19804;SDS011;10062;51.052;13.756;2023-07-02T09:37:52;3.25;;;1.80;;
19804;SDS011;10062;51.052;13.756;2023-07-02T09:40:24;4.57;;;1.80;;
19804;SDS011;10062;51.052;13.756;2023-07-02T09:43:00;4.72;;;1.58;;
19804;SDS011;10062;51.052;13.756;2023-07-02T09:45:32;2.85;;;1.55;;
19804;SDS011;10062;51.052;13.756;2023-07-02T09:48:04;2.80;;;1.52;;
19804;SDS011;10062;51.052;13.756;2023-07-02T09:50:37;4.05;;;1.60;;
19804;SDS011;10062;51.052;13.756;2023-07-02T09:53:10;3.80;;;1.90;;
19804;SDS011;10062;51.052;13.756;2023-07-02T09:55:42;3.47;;;1.85;;
19804;SDS011;10062;51.052;13.756;2023-07-02T09:58:16;5.90;;;2.10;;
19804;SDS011;10062;51.052;13.756;2023-07-02T10:00:48;5.97;;;3.90;;
19804;SDS011;10062;51.052;13.756;2023-07-02T10:03:29;3.78;;;2.13;;
19804;SDS011;10062;51.052;13.756;2023-07-02T10:06:02;3.65;;;1.63;;
19804;SDS011;10062;51.052;13.756;2023-07-02T10:08:35;3.10;;;1.75;;
19804;SDS011;10062;51.052;13.756;2023-07-02T10:11:08;4.68;;;1.83;;
19804;SDS011;10062;51.052;13.756;2023-07-02T10:13:41;3.22;;;1.52;;
19804;SDS011;10062;51.052;13.756;2023-07-02T10:16:13;2.25;;;1.52;;
19804;SDS011;10062;51.052;13.756;2023-07-02T10:18:45;2.80;;;1.60;;
19804;SDS011;10062;51.052;13.756;2023-07-02T10:21:17;4.65;;;1.70;;
19804;SDS011;10062;51.052;13.756;2023-07-02T10:23:48;3.40;;;1.90;;
19804;SDS011;10062;51.052;13.756;2023-07-02T10:26:20;3.88;;;2.03;;
19804;SDS011;10062;51.052;13.756;2023-07-02T10:28:57;4.20;;;1.70;;
19804;SDS011;10062;51.052;13.756;2023-07-02T10:31:29;4.80;;;2.05;;
19804;SDS011;10062;51.052;13.756;2023-07-02T10:34:00;4.57;;;1.75;;
19804;SDS011;10062;51.052;13.756;2023-07-02T10:36:32;3.75;;;2.05;;
19804;SDS011;10062;51.052;13.756;2023-07-02T10:39:04;3.38;;;1.52;;
19804;SDS011;10062;51.052;13.756;2023-07-02T10:41:36;3.70;;;1.70;;
19804;SDS011;10062;51.052;13.756;2023-07-02T10:44:09;3.20;;;1.75;;
19804;SDS011;10062;51.052;13.756;2023-07-02T10:46:44;3.75;;;2.00;;
19804;SDS011;10062;51.052;13.756;2023-07-02T10:49:16;4.35;;;1.67;;
19804;SDS011;10062;51.052;13.756;2023-07-02T10:51:56;2.60;;;1.63;;
19804;SDS011;10062;51.052;13.756;2023-07-02T10:54:38;2.65;;;1.70;;
19804;SDS011;10062;51.052;13.756;2023-07-02T10:57:12;4.25;;;1.80;;
19804;SDS011;10062;51.052;13.756;2023-07-02T10:59:47;2.97;;;1.80;;
19804;SDS011;10062;51.052;13.756;2023-07-02T11:02:19;3.42;;;1.60;;
19804;SDS011;10062;51.052;13.756;2023-07-02T11:04:51;5.25;;;2.30;;
19804;SDS011;10062;51.052;13.756;2023-07-02T11:07:23;8.70;;;1.75;;
19804;SDS011;10062;51.052;13.756;2023-07-02T11:09:55;3.95;;;1.70;;
19804;SDS011;10062;51.052;13.756;2023-07-02T11:12:27;3.78;;;2.05;;
19804;SDS011;10062;51.052;13.756;2023-07-02T11:15:09;3.72;;;2.00;;
19804;SDS011;10062;51.052;13.756;2023-07-02T11:17:42;3.80;;;1.80;;
19804;SDS011;10062;51.052;13.756;2023-07-02T11:20:13;3.05;;;1.38;;
19804;SDS011;10062;51.052;13.756;2023-07-02T11:22:46;4.00;;;1.80;;
19804;SDS011;10062;51.052;13.756;2023-07-02T11:25:18;2.00;;;1.38;;
19804;SDS011;10062;51.052;13.756;2023-07-02T11:27:51;2.28;;;1.25;;
19804;SDS011;10062;51.052;13.756;2023-07-02T11:30:44;7.95;;;1.60;;
19804;SDS011;10062;51.052;13.756;2023-07-02T11:33:16;3.58;;;1.65;;
19804;SDS011;10062;51.052;13.756;2023-07-02T11:35:48;5.50;;;1.80;;
19804;SDS011;10062;51.052;13.756;2023-07-02T11:38:20;5.03;;;1.98;;
19804;SDS011;10062;51.052;13.756;2023-07-02T11:40:51;4.53;;;1.80;;
19804;SDS011;10062;51.052;13.756;2023-07-02T11:43:23;4.53;;;1.60;;
19804;SDS011;10062;51.052;13.756;2023-07-02T11:45:56;3.60;;;1.80;;
19804;SDS011;10062;51.052;13.756;2023-07-02T11:48:27;5.53;;;2.75;;
19804;SDS011;10062;51.052;13.756;2023-07-02T11:50:59;3.15;;;1.73;;
19804;SDS011;10062;51.052;13.756;2023-07-02T11:53:31;2.58;;;1.50;;
19804;SDS011;10062;51.052;13.756;2023-07-02T11:56:02;6.68;;;1.90;;
19804;SDS011;10062;51.052;13.756;2023-07-02T11:58:34;4.18;;;1.80;;
19804;SDS011;10062;51.052;13.756;2023-07-02T12:01:07;6.47;;;3.38;;
19804;SDS011;10062;51.052;13.756;2023-07-02T12:03:39;5.55;;;2.47;;
19804;SDS011;10062;51.052;13.756;2023-07-02T12:06:10;5.72;;;1.85;;
19804;SDS011;10062;51.052;13.756;2023-07-02T12:08:42;8.48;;;1.70;;
19804;SDS011;10062;51.052;13.756;2023-07-02T12:11:14;6.50;;;2.40;;
19804;SDS011;10062;51.052;13.756;2023-07-02T12:13:46;5.50;;;2.35;;
19804;SDS011;10062;51.052;13.756;2023-07-02T12:16:19;5.10;;;2.08;;
19804;SDS011;10062;51.052;13.756;2023-07-02T12:18:50;5.55;;;2.03;;
19804;SDS011;10062;51.052;13.756;2023-07-02T12:21:22;3.80;;;1.90;;
19804;SDS011;10062;51.052;13.756;2023-07-02T12:23:54;4.85;;;2.78;;
19804;SDS011;10062;51.052;13.756;2023-07-02T12:26:25;6.13;;;2.38;;
19804;SDS011;10062;51.052;13.756;2023-07-02T12:28:59;3.15;;;2.08;;
19804;SDS011;10062;51.052;13.756;2023-07-02T12:31:31;4.00;;;1.92;;
19804;SDS011;10062;51.052;13.756;2023-07-02T12:34:03;4.95;;;1.95;;
19804;SDS011;10062;51.052;13.756;2023-07-02T12:36:35;5.18;;;2.75;;
19804;SDS011;10062;51.052;13.756;2023-07-02T12:39:06;5.78;;;2.30;;
19804;SDS011;10062;51.052;13.756;2023-07-02T12:41:38;5.30;;;2.17;;
19804;SDS011;10062;51.052;13.756;2023-07-02T12:44:10;6.68;;;2.30;;
19804;SDS011;10062;51.052;13.756;2023-07-02T12:46:43;6.00;;;2.25;;
19804;SDS011;10062;51.052;13.756;2023-07-02T12:49:14;5.43;;;2.05;;
19804;SDS011;10062;51.052;13.756;2023-07-02T12:51:46;4.90;;;1.92;;
19804;SDS011;10062;51.052;13.756;2023-07-02T12:54:18;4.97;;;1.88;;
19804;SDS011;10062;51.052;13.756;2023-07-02T12:56:49;3.15;;;1.85;;
19804;SDS011;10062;51.052;13.756;2023-07-02T12:59:21;3.28;;;1.95;;
19804;SDS011;10062;51.052;13.756;2023-07-02T13:01:54;5.43;;;1.63;;
19804;SDS011;10062;51.052;13.756;2023-07-02T13:04:26;6.50;;;2.40;;
19804;SDS011;10062;51.052;13.756;2023-07-02T13:06:58;6.43;;;2.45;;
19804;SDS011;10062;51.052;13.756;2023-07-02T13:09:29;3.70;;;1.90;;
19804;SDS011;10062;51.052;13.756;2023-07-02T13:12:01;9.43;;;4.72;;
19804;SDS011;10062;51.052;13.756;2023-07-02T13:14:33;11.52;;;3.85;;
19804;SDS011;10062;51.052;13.756;2023-07-02T13:17:06;8.60;;;2.30;;
19804;SDS011;10062;51.052;13.756;2023-07-02T13:19:38;7.78;;;2.88;;
19804;SDS011;10062;51.052;13.756;2023-07-02T13:22:09;4.50;;;2.83;;
19804;SDS011;10062;51.052;13.756;2023-07-02T13:24:41;6.57;;;3.13;;
19804;SDS011;10062;51.052;13.756;2023-07-02T13:27:14;7.45;;;2.80;;
19804;SDS011;10062;51.052;13.756;2023-07-02T13:29:47;12.27;;;2.92;;
19804;SDS011;10062;51.052;13.756;2023-07-02T13:32:20;7.15;;;2.53;;
19804;SDS011;10062;51.052;13.756;2023-07-02T13:34:52;5.25;;;2.85;;
19804;SDS011;10062;51.052;13.756;2023-07-02T13:37:24;8.40;;;3.10;;
19804;SDS011;10062;51.052;13.756;2023-07-02T13:39:55;6.30;;;2.88;;
19804;SDS011;10062;51.052;13.756;2023-07-02T13:42:27;7.80;;;3.38;;
19804;SDS011;10062;51.052;13.756;2023-07-02T13:44:59;8.43;;;3.17;;
19804;SDS011;10062;51.052;13.756;2023-07-02T13:47:31;7.22;;;3.33;;
19804;SDS011;10062;51.052;13.756;2023-07-02T13:50:03;9.30;;;3.40;;
19804;SDS011;10062;51.052;13.756;2023-07-02T13:52:36;6.13;;;3.63;;
19804;SDS011;10062;51.052;13.756;2023-07-02T13:55:08;8.02;;;3.55;;
19804;SDS011;10062;51.052;13.756;2023-07-02T13:57:40;5.68;;;2.47;;
19804;SDS011;10062;51.052;13.756;2023-07-02T14:00:13;6.90;;;3.08;;
19804;SDS011;10062;51.052;13.756;2023-07-02T14:02:45;5.13;;;2.42;;
19804;SDS011;10062;51.052;13.756;2023-07-02T14:05:17;3.90;;;2.00;;
19804;SDS011;10062;51.052;13.756;2023-07-02T14:07:48;6.15;;;3.38;;
19804;SDS011;10062;51.052;13.756;2023-07-02T14:10:20;7.22;;;2.97;;
19804;SDS011;10062;51.052;13.756;2023-07-02T14:12:52;5.13;;;2.80;;
19804;SDS011;10062;51.052;13.756;2023-07-02T14:15:25;7.85;;;2.63;;
19804;SDS011;10062;51.052;13.756;2023-07-02T14:17:57;5.43;;;2.83;;
19804;SDS011;10062;51.052;13.756;2023-07-02T14:20:29;5.38;;;2.40;;
19804;SDS011;10062;51.052;13.756;2023-07-02T14:23:01;7.88;;;2.60;;
19804;SDS011;10062;51.052;13.756;2023-07-02T14:25:32;8.13;;;3.38;;
19804;SDS011;10062;51.052;13.756;2023-07-02T14:28:04;8.35;;;3.88;;
19804;SDS011;10062;51.052;13.756;2023-07-02T14:30:37;6.97;;;4.45;;
19804;SDS011;10062;51.052;13.756;2023-07-02T14:33:09;8.70;;;3.00;;
19804;SDS011;10062;51.052;13.756;2023-07-02T14:35:41;5.53;;;3.38;;
19804;SDS011;10062;51.052;13.756;2023-07-02T14:38:12;6.10;;;2.97;;
19804;SDS011;10062;51.052;13.756;2023-07-02T14:40:44;5.97;;;3.17;;
19804;SDS011;10062;51.052;13.756;2023-07-02T14:43:16;6.32;;;2.70;;
19804;SDS011;10062;51.052;13.756;2023-07-02T14:45:49;10.63;;;3.20;;
19804;SDS011;10062;51.052;13.756;2023-07-02T14:48:22;7.60;;;3.45;;
19804;SDS011;10062;51.052;13.756;2023-07-02T14:50:55;5.43;;;3.05;;
19804;SDS011;10062;51.052;13.756;2023-07-02T14:53:28;5.15;;;3.13;;
19804;SDS011;10062;51.052;13.756;2023-07-02T14:56:01;8.82;;;3.55;;
19804;SDS011;10062;51.052;13.756;2023-07-02T14:58:34;11.38;;;3.22;;
19804;SDS011;10062;51.052;13.756;2023-07-02T15:01:09;8.27;;;4.05;;
19804;SDS011;10062;51.052;13.756;2023-07-02T15:03:41;10.77;;;4.10;;